Topeka, KS (66611)

05:50 AM CST die 24o November, anno 2014 (GMT -0600)
South Central Topeka | Change Station
CLOSE
Current Station
Personal Weather Stations
Location: Topeka, KS
Elevation: 946 ft
Nearby Weather Stations

Elev 946 ft 39.03 °N, 95.71 °W | Updated 8 seconds ago

Serena
Serena
33.4 °F
Feels Like 33 °F
N
0.0
Ventus Variabilis Ventus from Inter Aquilonem et Zephyrus
Gusts 5.8 mph

Hodie
High -- | Low -- °F
--% Chance of Precip.
Yesterday
High -- | Low -- °F
Precip. -- in
7:15 AM 5:03 PM
Waxing Crescent, 5% visible
Pressio 29.66 in
Visibilitas 10.0 milia passuum
Clouds Serena
Frigus Venti 33 °F
Frigus in quo Ros apparet 25 °F
Umor 72%
Rainfall 0.00 in
Snow Depth Not available.
UV 0 out of 12
Pollen .10 out of 12
Air Quality Not available.
Flu Activity Not available.
METAR KFOE 241053Z AUTO 31015KT 10SM CLR 02/M05 A2965 RMK AO2 PK WND 30026/1035 SLP044 T00171050 $

More Conditions Fewer Conditions

Pressio 29.66 in
Visibilitas 10.0 milia passuum
Clouds Serena
Frigus Venti 33 °F
Frigus in quo Ros apparet 25 °F
Umor 72%
Rainfall 0.00 in
Snow Depth Not available.
UV 0 out of 12
Pollen .10 out of 12
Air Quality Not available.
Flu Activity Not available.
METAR KFOE 241053Z AUTO 31015KT 10SM CLR 02/M05 A2965 RMK AO2 PK WND 30026/1035 SLP044 T00171050 $

More Conditions Fewer Conditions

10-Day Weather Forecast

Almanac

Astronomy

Nov. 24, 2014 Rise Set
Actual Time
Civil Twilight
Nautical Twilight
Astronomical Twilight
Moon
Length Of Visible Light
Length of Day
Tomorrow will be .
, % of the Moon is Illuminated

Today's Extremes

State Highs State Lows

Community

WunderPhotos

Upload Photos

1,773,312 photos uploaded!

WunderBlogs® & News

Nearby

Air Quality

  Air Quality AQ Index Pollutant
Not available.

Snow Depth

Station Depth Elevation

Earthquake Activity

City Distance Mag. Time & Date
Minimum magnitude displayed is 2.5.

Coastal Water Temperatures

Locus Calor

Nearby Weather Stations